Bristol, VT (05443)

8:24 AM EDT on April 27, 2015 (GMT -0400)
Shrek's Swamp | | Change Station
CLOSE
Current Station
Personal Weather Station
Location: Bristol, VT
Elevation: 421 ft
Nearby Weather Stations

Elev 421 ft 44.13 °N, 73.09 °W | Updated 3 minutes ago

Mostly Cloudy
Mostly Cloudy
41.3 °F
Feels Like 41 °F
N
0.0
Wind Variable Wind from SE
Gusts 0.0 mph

Today
High -- | Low -- °F
--% Chance of Precip.
Yesterday
High -- | Low -- °F
Precip. -- in
5:49 AM 7:50 PM
Waxing Gibbous, 64% visible
Pressure 29.69 in
Visibility 10.0 miles
Clouds Scattered Clouds 900 ft
Mostly Cloudy 1600 ft
Overcast 2300 ft
Windchill 41 °F
Dew Point 39 °F
Humidity 90%
Rainfall 0.00 in
Snow Depth Not available.
UV 0.0 out of 12
Pollen 9.30 out of 12
Air Quality Not available.
Flu Activity Regional
METAR K6B0 271215Z AUTO 35007KT 10SM -RA SCT009 BKN016 OVC023 06/06 A2969 RMK AO2 T00550055

More Conditions Fewer Conditions

Pressure 29.69 in
Visibility 10.0 miles
Clouds Scattered Clouds 900 ft
Mostly Cloudy 1600 ft
Overcast 2300 ft
Windchill 41 °F
Dew Point 39 °F
Humidity 90%
Rainfall 0.00 in
Snow Depth Not available.
UV 0.0 out of 12
Pollen 9.30 out of 12
Air Quality Not available.
Flu Activity Regional
METAR K6B0 271215Z AUTO 35007KT 10SM -RA SCT009 BKN016 OVC023 06/06 A2969 RMK AO2 T00550055

More Conditions Fewer Conditions

10-Day Weather Forecast

Almanac

Astronomy

Apr. 27, 2015 Rise Set
Actual Time
Civil Twilight
Nautical Twilight
Astronomical Twilight
Moon
Length of Visible Light
Length of Day
Tomorrow will be .
, % of the Moon is Illuminated

Today's Extremes

State Highs State Lows

Community

WunderPhotos

Upload Photos

1,817,290 photos uploaded!

WunderBlogs® & News

Nearby

Air Quality

  Air Quality AQ Index Pollutant
Not available.

Snow Depth

Station Depth Elevation

Earthquake Activity

City Distance Mag. Time & Date
Minimum magnitude displayed is 2.5.

Coastal Water Temperatures

Place Temperature

Stations

Nearby Weather Stations

Station Location Temp. Windchill Dew Point Humidity Wind Precip. Elev Updated Type